createdAt,value
2023-02-08T00:00:46.577Z,25.40
2023-02-08T00:03:13.429Z,26.60
2023-02-08T00:05:40.882Z,28.70
2023-02-08T00:08:09.057Z,27.30
2023-02-08T00:10:35.913Z,30.80
2023-02-08T00:13:02.959Z,29.20
2023-02-08T00:15:30.189Z,28.30
2023-02-08T00:17:57.070Z,27.80
2023-02-08T00:20:23.773Z,30.20
2023-02-08T00:22:52.527Z,31.80
2023-02-08T00:25:20.256Z,30.10
2023-02-08T00:27:47.168Z,30.30
2023-02-08T00:30:14.332Z,29.70
2023-02-08T00:32:41.994Z,29.00
2023-02-08T00:35:09.150Z,31.20
2023-02-08T00:37:35.989Z,28.60
2023-02-08T00:40:05.238Z,29.90
2023-02-08T00:42:32.233Z,29.40
2023-02-08T00:44:59.136Z,29.90
2023-02-08T00:47:26.019Z,32.90
2023-02-08T00:49:53.993Z,30.30
2023-02-08T00:52:20.942Z,30.70
2023-02-08T00:54:47.761Z,29.80
2023-02-08T00:57:14.928Z,32.60
2023-02-08T00:59:42.391Z,30.40
2023-02-08T01:02:09.186Z,28.90
2023-02-08T01:04:36.492Z,29.20
2023-02-08T01:07:04.492Z,29.40
2023-02-08T01:09:31.286Z,31.10
2023-02-08T01:11:57.984Z,27.20
2023-02-08T01:14:25.395Z,31.50
2023-02-08T01:16:52.853Z,31.30
2023-02-08T01:19:19.799Z,30.90
2023-02-08T01:21:48.797Z,29.60
2023-02-08T01:24:16.278Z,30.10
2023-02-08T01:26:43.301Z,29.20
2023-02-08T01:29:10.590Z,31.60
2023-02-08T01:31:40.296Z,27.40
2023-02-08T01:34:08.434Z,30.40
2023-02-08T01:36:35.824Z,30.50
2023-02-08T01:39:04.375Z,29.60
2023-02-08T01:41:33.954Z,29.90
2023-02-08T01:44:01.044Z,30.10
2023-02-08T01:46:28.802Z,31.20
2023-02-08T01:48:57.796Z,29.40
2023-02-08T01:51:28.421Z,26.90
2023-02-08T01:53:55.400Z,26.30
2023-02-08T01:56:28.556Z,27.90
2023-02-08T01:58:57.566Z,28.50
2023-02-08T02:01:24.799Z,30.30
2023-02-08T02:03:51.763Z,26.20
2023-02-08T02:06:25.513Z,27.30
2023-02-08T02:09:33.164Z,27.20
2023-02-08T02:12:00.721Z,28.30
2023-02-08T02:14:27.734Z,28.90
2023-02-08T02:16:54.950Z,28.90
2023-02-08T02:19:31.183Z,27.50
2023-02-08T02:22:14.831Z,29.80
2023-02-08T02:24:59.614Z,31.30
2023-02-08T02:27:45.778Z,27.40
2023-02-08T02:30:25.267Z,30.20
2023-02-08T02:33:10.597Z,29.50
2023-02-08T02:35:49.530Z,28.10
2023-02-08T02:38:20.674Z,31.10
2023-02-08T02:40:53.626Z,30.10
2023-02-08T02:43:43.643Z,33.80
2023-02-08T02:46:24.220Z,30.70
2023-02-08T02:49:03.969Z,28.40
2023-02-08T02:51:57.322Z,28.30
2023-02-08T02:54:25.273Z,28.30
2023-02-08T02:56:59.680Z,27.10
2023-02-08T02:59:26.763Z,28.30
2023-02-08T03:01:54.089Z,29.60
2023-02-08T03:04:33.071Z,28.70
2023-02-08T03:07:21.816Z,26.30
2023-02-08T03:10:22.687Z,28.60
2023-02-08T03:13:37.458Z,27.30
2023-02-08T03:16:07.737Z,24.70
2023-02-08T03:18:42.668Z,28.70
2023-02-08T03:21:12.233Z,28.70
2023-02-08T03:23:51.356Z,28.80
2023-02-08T03:26:23.276Z,29.80
2023-02-08T03:29:01.893Z,28.40
2023-02-08T03:31:33.148Z,26.90
2023-02-08T03:34:12.419Z,26.40
2023-02-08T03:37:26.500Z,28.10
2023-02-08T03:39:58.296Z,26.50
2023-02-08T03:42:25.543Z,28.00
2023-02-08T03:45:05.176Z,27.10
2023-02-08T03:47:37.680Z,30.50
2023-02-08T03:50:07.271Z,26.40
2023-02-08T03:52:34.437Z,25.20
2023-02-08T03:55:10.430Z,26.00
2023-02-08T03:57:45.814Z,26.80
2023-02-08T04:00:14.047Z,27.60
2023-02-08T04:02:46.402Z,27.90
2023-02-08T04:05:13.614Z,26.40
2023-02-08T04:07:40.763Z,28.70
2023-02-08T04:10:08.030Z,27.00
2023-02-08T04:12:35.475Z,28.20
2023-02-08T04:15:02.884Z,29.40
2023-02-08T04:17:29.878Z,27.60
2023-02-08T04:19:57.129Z,27.70
2023-02-08T04:22:23.865Z,28.20
2023-02-08T04:24:50.758Z,29.20
2023-02-08T04:27:17.480Z,26.70
2023-02-08T04:29:44.506Z,27.70
2023-02-08T04:32:11.254Z,27.50
2023-02-08T04:34:39.332Z,27.70
2023-02-08T04:37:06.764Z,27.00
2023-02-08T04:39:33.625Z,27.30
2023-02-08T04:42:02.292Z,25.80
2023-02-08T04:44:32.270Z,25.80
2023-02-08T04:46:59.894Z,25.60
2023-02-08T04:49:26.634Z,23.60
2023-02-08T04:51:54.091Z,25.50
2023-02-08T04:54:21.962Z,28.20
2023-02-08T04:56:48.655Z,24.90
2023-02-08T04:59:15.234Z,29.70
2023-02-08T05:01:41.965Z,29.30
2023-02-08T05:04:08.917Z,28.90
2023-02-08T05:06:35.618Z,26.90
2023-02-08T05:09:03.013Z,29.30
2023-02-08T05:11:30.005Z,30.00
2023-02-08T05:13:56.960Z,33.00
2023-02-08T05:16:24.110Z,33.10
2023-02-08T05:18:50.863Z,29.70
2023-02-08T05:21:17.843Z,31.10
2023-02-08T05:23:46.623Z,30.10
2023-02-08T05:26:14.817Z,31.00
2023-02-08T05:28:41.786Z,28.00
2023-02-08T05:31:20.060Z,29.30
2023-02-08T05:33:48.445Z,27.90
2023-02-08T05:36:16.536Z,30.10
2023-02-08T05:38:43.457Z,29.50
2023-02-08T05:41:10.302Z,24.50
2023-02-08T05:43:37.961Z,24.70
2023-02-08T05:46:05.155Z,30.80
2023-02-08T05:48:31.804Z,27.50
2023-02-08T05:50:59.221Z,26.00
2023-02-08T05:53:26.755Z,25.00
2023-02-08T05:55:53.513Z,24.70
2023-02-08T05:58:20.356Z,26.50
2023-02-08T06:00:47.605Z,25.80
2023-02-08T06:03:14.411Z,23.20
2023-02-08T06:05:41.633Z,23.70
2023-02-08T06:08:08.857Z,26.90
2023-02-08T06:10:36.173Z,26.00
2023-02-08T06:13:03.493Z,24.40
2023-02-08T06:15:30.506Z,22.30
2023-02-08T06:17:57.994Z,25.20
2023-02-08T06:20:24.813Z,23.60
2023-02-08T06:22:52.192Z,30.90
2023-02-08T06:25:19.546Z,27.40
2023-02-08T06:27:46.847Z,21.70
2023-02-08T06:30:13.658Z,24.60
2023-02-08T06:32:41.017Z,21.10
2023-02-08T06:35:08.348Z,23.90
2023-02-08T06:37:35.891Z,22.20
2023-02-08T06:40:03.720Z,23.70
2023-02-08T06:42:31.237Z,24.20
2023-02-08T06:44:58.689Z,24.80
2023-02-08T06:47:26.242Z,24.70
2023-02-08T06:49:53.185Z,22.70
2023-02-08T06:52:20.493Z,21.40
2023-02-08T06:54:47.585Z,21.60
2023-02-08T06:57:14.356Z,22.00
2023-02-08T06:59:41.410Z,22.50
2023-02-08T07:02:12.991Z,23.80
2023-02-08T07:04:40.004Z,23.50
2023-02-08T07:07:07.088Z,21.20
2023-02-08T07:09:34.921Z,22.80
2023-02-08T07:12:04.644Z,22.10
2023-02-08T07:14:33.292Z,23.50
2023-02-08T07:17:02.811Z,23.40
2023-02-08T07:19:29.991Z,24.90
2023-02-08T07:21:57.241Z,22.90
2023-02-08T07:24:24.095Z,25.50
2023-02-08T07:26:52.063Z,22.90
2023-02-08T07:29:19.184Z,20.50
2023-02-08T07:31:46.452Z,23.50
2023-02-08T07:34:13.665Z,20.30
2023-02-08T07:36:44.710Z,33.90
2023-02-08T07:39:12.270Z,28.00
2023-02-08T07:41:42.349Z,28.80
2023-02-08T07:44:09.922Z,21.50
2023-02-08T07:46:36.800Z,26.20
2023-02-08T07:49:03.757Z,24.30
2023-02-08T07:51:30.523Z,23.80
2023-02-08T07:53:57.332Z,33.20
2023-02-08T07:56:24.202Z,25.60
2023-02-08T07:58:51.117Z,25.30
2023-02-08T08:01:22.367Z,22.00
2023-02-08T08:03:50.798Z,24.20
2023-02-08T08:06:19.334Z,27.70
2023-02-08T08:08:47.476Z,23.60
2023-02-08T08:11:15.510Z,20.50
2023-02-08T08:13:43.751Z,21.60
2023-02-08T08:16:10.762Z,24.80
2023-02-08T08:18:37.592Z,19.20
2023-02-08T08:21:05.494Z,20.90
2023-02-08T08:23:32.768Z,29.20
2023-02-08T08:26:00.328Z,22.50
2023-02-08T08:28:27.399Z,24.40
2023-02-08T08:30:54.513Z,20.60
2023-02-08T08:33:21.718Z,19.70
2023-02-08T08:35:48.505Z,22.70
2023-02-08T08:38:15.301Z,22.90
2023-02-08T08:40:43.000Z,22.50
2023-02-08T08:43:10.814Z,22.30
2023-02-08T08:45:37.735Z,18.30
2023-02-08T08:48:05.398Z,19.50
2023-02-08T08:50:33.776Z,21.20
2023-02-08T08:53:00.724Z,18.10
2023-02-08T08:55:27.986Z,16.90
2023-02-08T08:57:54.922Z,18.10
2023-02-08T09:00:22.487Z,23.90
2023-02-08T09:02:49.527Z,18.60
2023-02-08T09:05:16.482Z,24.70
2023-02-08T09:07:43.439Z,18.60
2023-02-08T09:10:15.508Z,21.60
2023-02-08T09:12:42.463Z,18.90
2023-02-08T09:15:11.020Z,19.40
2023-02-08T09:17:38.370Z,19.30
2023-02-08T09:20:05.795Z,19.00
2023-02-08T09:22:33.134Z,17.90
2023-02-08T09:25:01.844Z,16.60
2023-02-08T09:27:29.447Z,17.90
2023-02-08T09:29:56.471Z,16.60
2023-02-08T09:32:23.624Z,15.70
2023-02-08T09:34:51.131Z,14.90
2023-02-08T09:37:18.040Z,15.60
2023-02-08T09:39:45.166Z,19.60
2023-02-08T09:42:17.965Z,18.10
2023-02-08T09:44:55.267Z,19.10
2023-02-08T09:47:36.463Z,16.50
2023-02-08T09:50:05.584Z,16.10
2023-02-08T09:52:42.269Z,16.40
2023-02-08T09:55:30.970Z,15.10
2023-02-08T09:57:58.933Z,15.80
2023-02-08T10:00:41.211Z,14.50
2023-02-08T10:03:33.306Z,16.80
2023-02-08T10:06:02.059Z,15.30
2023-02-08T10:08:35.256Z,15.30
2023-02-08T10:11:08.978Z,14.90
2023-02-08T10:14:03.156Z,15.60
2023-02-08T10:16:49.515Z,15.30
2023-02-08T10:19:35.636Z,14.80
2023-02-08T10:22:34.892Z,13.70
2023-02-08T10:25:23.526Z,14.70
2023-02-08T10:28:12.609Z,14.00
2023-02-08T10:30:39.513Z,12.60
2023-02-08T10:33:11.878Z,14.70
2023-02-08T10:35:41.884Z,10.80
2023-02-08T10:38:44.242Z,12.70
2023-02-08T10:41:35.396Z,11.60
2023-02-08T10:44:30.396Z,12.80
2023-02-08T10:47:15.777Z,11.60
2023-02-08T10:50:09.591Z,12.40
2023-02-08T10:52:37.431Z,14.00
2023-02-08T10:55:15.486Z,14.90
2023-02-08T10:57:43.487Z,15.20
2023-02-08T11:00:13.296Z,14.80
2023-02-08T11:02:41.013Z,15.70
2023-02-08T11:05:13.266Z,14.60
2023-02-08T11:07:41.814Z,19.20
2023-02-08T11:10:17.669Z,17.00
2023-02-08T11:12:57.932Z,17.10
2023-02-08T11:15:29.096Z,15.90
2023-02-08T11:18:00.529Z,14.90
2023-02-08T11:20:36.142Z,16.90
2023-02-08T11:23:04.814Z,16.70
2023-02-08T11:25:38.542Z,15.80
2023-02-08T11:28:41.492Z,16.80
2023-02-08T11:31:19.547Z,14.70
2023-02-08T11:34:05.879Z,15.90
2023-02-08T11:36:33.960Z,15.50
2023-02-08T11:39:02.934Z,17.70
2023-02-08T11:41:29.991Z,15.40
2023-02-08T11:44:01.239Z,17.00
2023-02-08T11:46:28.988Z,15.40
2023-02-08T11:48:55.904Z,15.80
2023-02-08T11:51:31.993Z,14.00
2023-02-08T11:54:00.380Z,15.80
2023-02-08T11:56:28.893Z,13.00
2023-02-08T11:59:15.317Z,14.30
2023-02-08T12:01:43.118Z,14.70
2023-02-08T12:04:11.309Z,15.80
2023-02-08T12:06:58.261Z,13.80
2023-02-08T12:09:36.425Z,14.40
2023-02-08T12:12:15.028Z,14.90
2023-02-08T12:15:13.017Z,14.90
2023-02-08T12:17:52.585Z,15.50
2023-02-08T12:20:30.129Z,13.60
2023-02-08T12:25:43.065Z,14.30
2023-02-08T12:28:16.515Z,15.20
2023-02-08T12:30:57.487Z,18.10
2023-02-08T12:33:46.531Z,17.50
2023-02-08T12:37:11.222Z,15.00
2023-02-08T12:40:38.802Z,15.60
2023-02-08T12:43:21.269Z,14.90
2023-02-08T12:45:57.382Z,14.50
2023-02-08T12:48:33.737Z,15.20
2023-02-08T12:51:06.612Z,16.10
2023-02-08T12:53:38.875Z,16.20
2023-02-08T12:58:39.814Z,14.30
2023-02-08T13:01:34.354Z,16.60
2023-02-08T13:04:09.060Z,17.20
2023-02-08T13:06:41.716Z,18.40
2023-02-08T13:16:46.872Z,14.40
2023-02-08T13:19:27.301Z,19.60
2023-02-08T13:21:55.721Z,18.10
2023-02-08T13:24:52.439Z,14.60
2023-02-08T13:27:29.955Z,24.60
2023-02-08T13:29:58.648Z,14.20
2023-02-08T13:32:42.776Z,13.40
2023-02-08T13:35:20.150Z,11.60
2023-02-08T13:38:12.392Z,13.10
2023-02-08T13:40:41.127Z,15.40
2023-02-08T13:43:34.316Z,15.50
2023-02-08T13:46:03.480Z,14.50
2023-02-08T13:48:48.911Z,15.00
2023-02-08T13:51:32.656Z,15.00
2023-02-08T13:54:01.069Z,15.70
2023-02-08T13:56:48.890Z,15.90
2023-02-08T13:59:29.114Z,18.20
2023-02-08T14:02:19.113Z,15.80
2023-02-08T14:05:19.962Z,18.50
2023-02-08T14:10:37.704Z,17.60
2023-02-08T14:13:25.333Z,22.60
2023-02-08T14:16:24.382Z,18.30
2023-02-08T14:18:57.934Z,18.90
2023-02-08T14:21:45.987Z,20.10
2023-02-08T14:24:23.549Z,18.80
2023-02-08T14:26:51.853Z,17.10
2023-02-08T14:29:24.573Z,19.60
2023-02-08T14:31:55.559Z,18.50
2023-02-08T14:34:34.894Z,18.60
2023-02-08T14:37:27.816Z,20.80
2023-02-08T14:40:23.563Z,20.70
2023-02-08T14:43:03.334Z,19.70
2023-02-08T14:45:37.970Z,19.20
2023-02-08T14:48:20.766Z,20.50
2023-02-08T14:51:10.884Z,21.40
2023-02-08T14:53:42.322Z,37.60
2023-02-08T14:56:10.393Z,30.00
2023-02-08T14:58:43.627Z,25.30
2023-02-08T15:01:45.046Z,27.60
2023-02-08T15:07:09.364Z,23.10
2023-02-08T15:09:39.301Z,23.90
2023-02-08T15:12:34.516Z,24.30
2023-02-08T15:15:07.157Z,26.00
2023-02-08T15:17:39.304Z,30.50
2023-02-08T15:20:09.414Z,47.60
2023-02-08T15:22:38.621Z,25.30
2023-02-08T15:25:34.801Z,24.70
2023-02-08T15:28:24.061Z,24.00
2023-02-08T15:31:11.885Z,26.80
2023-02-08T15:33:40.743Z,25.20
2023-02-08T15:36:15.311Z,25.50
2023-02-08T15:38:45.083Z,22.50
2023-02-08T15:41:14.517Z,23.90
2023-02-08T15:43:43.074Z,21.10
2023-02-08T15:46:22.290Z,24.00
2023-02-08T15:48:51.200Z,21.90
2023-02-08T15:51:23.222Z,22.70
2023-02-08T15:53:52.767Z,20.20
2023-02-08T15:56:36.795Z,21.70
2023-02-08T15:59:07.015Z,21.10
2023-02-08T16:01:37.121Z,19.50
2023-02-08T16:04:12.648Z,19.60
2023-02-08T16:06:53.407Z,19.20
2023-02-08T16:09:27.526Z,21.00
2023-02-08T16:12:00.823Z,19.10
2023-02-08T16:14:38.040Z,22.60
2023-02-08T16:17:44.230Z,23.20
2023-02-08T16:20:41.470Z,33.10
2023-02-08T16:23:25.539Z,37.60
2023-02-08T16:25:54.129Z,25.80
2023-02-08T16:28:30.216Z,25.20
2023-02-08T16:31:00.038Z,34.50
2023-02-08T16:33:28.200Z,55.20
2023-02-08T16:36:02.003Z,56.10
2023-02-08T16:38:31.778Z,45.60
2023-02-08T16:41:12.338Z,34.30
2023-02-08T16:43:44.521Z,24.80
2023-02-08T16:46:16.420Z,20.30
2023-02-08T16:48:56.849Z,21.30
2023-02-08T16:51:29.216Z,21.30
2023-02-08T16:54:02.531Z,46.20
2023-02-08T16:56:30.732Z,37.20
2023-02-08T16:58:58.987Z,49.10
2023-02-08T17:01:28.712Z,59.50
2023-02-08T17:03:57.070Z,43.40
2023-02-08T17:06:34.771Z,36.90
2023-02-08T17:09:06.358Z,30.50
2023-02-08T17:11:36.196Z,28.40
2023-02-08T17:14:05.227Z,29.90
2023-02-08T17:16:34.497Z,32.10
2023-02-08T17:19:03.036Z,42.50
2023-02-08T17:21:31.434Z,47.00
2023-02-08T17:23:59.486Z,58.10
2023-02-08T17:26:37.950Z,62.70
2023-02-08T17:29:06.182Z,51.70
2023-02-08T17:31:35.902Z,60.20
2023-02-08T17:34:07.034Z,62.70
2023-02-08T17:36:37.130Z,63.10
2023-02-08T17:39:05.519Z,67.40
2023-02-08T17:41:35.511Z,58.30
2023-02-08T17:44:04.278Z,53.80
2023-02-08T17:46:33.484Z,53.50
2023-02-08T17:49:01.938Z,52.00
2023-02-08T17:51:30.733Z,32.30
2023-02-08T17:53:58.959Z,45.00
2023-02-08T17:56:28.645Z,44.40
2023-02-08T17:58:56.707Z,45.30
2023-02-08T18:01:26.336Z,45.80
2023-02-08T18:03:55.068Z,33.30
2023-02-08T18:06:25.083Z,28.20
2023-02-08T18:08:56.439Z,36.90
2023-02-08T18:11:24.734Z,35.10
2023-02-08T18:13:53.454Z,47.20
2023-02-08T18:16:24.047Z,52.20
2023-02-08T18:18:55.643Z,52.30
2023-02-08T18:21:25.947Z,53.40
2023-02-08T18:23:55.744Z,47.30
2023-02-08T18:26:24.299Z,47.10
2023-02-08T18:28:53.023Z,47.70
2023-02-08T18:31:21.308Z,52.40
2023-02-08T18:33:50.244Z,45.60
2023-02-08T18:36:19.625Z,44.50
2023-02-08T18:38:52.679Z,50.40
2023-02-08T18:41:26.261Z,49.90
2023-02-08T18:43:55.402Z,46.40
2023-02-08T18:46:26.390Z,45.30
2023-02-08T18:48:54.690Z,38.00
2023-02-08T18:51:23.407Z,39.20
2023-02-08T18:53:53.753Z,32.20
2023-02-08T18:56:24.022Z,32.20
2023-02-08T18:58:52.956Z,36.80
2023-02-08T19:01:22.681Z,33.90
2023-02-08T19:03:52.020Z,37.30
2023-02-08T19:06:22.826Z,34.10
2023-02-08T19:08:52.448Z,29.50
2023-02-08T19:11:20.583Z,23.40
2023-02-08T19:13:49.617Z,25.30
2023-02-08T19:16:17.988Z,76.90
2023-02-08T19:18:48.566Z,49.00
2023-02-08T19:21:17.588Z,51.00
2023-02-08T19:23:47.581Z,46.80
2023-02-08T19:26:25.652Z,40.30
2023-02-08T19:28:57.737Z,38.50
2023-02-08T19:31:26.790Z,35.10
2023-02-08T19:33:58.505Z,37.50
2023-02-08T19:36:29.166Z,48.90
2023-02-08T19:38:57.574Z,58.80
2023-02-08T19:41:32.503Z,56.70
2023-02-08T19:44:01.648Z,65.10
2023-02-08T19:46:29.964Z,51.50
2023-02-08T19:49:01.676Z,54.00
2023-02-08T19:51:32.292Z,56.00
2023-02-08T19:54:01.447Z,57.50
2023-02-08T19:56:33.875Z,68.40
2023-02-08T19:59:06.334Z,57.70
2023-02-08T20:01:35.522Z,60.10
2023-02-08T20:04:05.773Z,41.40
2023-02-08T20:09:05.593Z,54.00
2023-02-08T20:11:45.121Z,54.90
2023-02-08T20:14:19.475Z,55.30
2023-02-08T20:16:48.148Z,59.70
2023-02-08T20:19:16.499Z,58.60
2023-02-08T20:21:45.591Z,67.60
2023-02-08T20:24:14.022Z,67.60
2023-02-08T20:26:43.973Z,68.30
2023-02-08T20:29:12.719Z,72.60
2023-02-08T20:31:43.371Z,80.80
2023-02-08T20:34:13.455Z,88.20
2023-02-08T20:36:49.772Z,65.30
2023-02-08T20:39:22.653Z,90.10
2023-02-08T20:41:51.105Z,76.60
2023-02-08T20:44:19.979Z,63.30
2023-02-08T20:46:48.222Z,52.60
2023-02-08T20:49:22.099Z,45.30
2023-02-08T20:51:52.165Z,80.70
2023-02-08T20:54:20.491Z,76.20
2023-02-08T20:56:48.768Z,52.90
2023-02-08T20:59:17.061Z,80.20
2023-02-08T21:01:46.602Z,75.20
2023-02-08T21:04:17.186Z,61.80
2023-02-08T21:06:46.335Z,49.20
2023-02-08T21:09:16.159Z,44.20
2023-02-08T21:11:44.704Z,56.10
2023-02-08T21:14:19.095Z,40.60
2023-02-08T21:16:48.781Z,39.40
2023-02-08T21:19:17.443Z,38.20
2023-02-08T21:21:45.936Z,35.30
2023-02-08T21:24:15.243Z,39.00
2023-02-08T21:26:43.307Z,38.50
2023-02-08T21:29:11.501Z,38.00
2023-02-08T21:31:39.782Z,40.00
2023-02-08T21:34:08.188Z,36.80
2023-02-08T21:36:36.612Z,43.10
2023-02-08T21:39:05.982Z,39.70
2023-02-08T21:41:34.380Z,39.10
2023-02-08T21:44:03.931Z,37.80
2023-02-08T21:46:32.326Z,39.30
2023-02-08T21:49:19.584Z,37.10
2023-02-08T21:52:07.716Z,41.10
2023-02-08T21:54:41.736Z,32.50
2023-02-08T21:57:19.100Z,41.00
2023-02-08T21:59:51.963Z,49.40
2023-02-08T22:02:28.173Z,45.40
2023-02-08T22:05:00.286Z,47.50
2023-02-08T22:07:32.199Z,48.90
2023-02-08T22:10:07.475Z,53.00
2023-02-08T22:12:40.341Z,55.90
2023-02-08T22:15:12.136Z,50.10
2023-02-08T22:17:44.168Z,48.60
2023-02-08T22:20:15.916Z,46.00
2023-02-08T22:22:47.221Z,44.90
2023-02-08T22:25:18.803Z,45.00
2023-02-08T22:27:49.470Z,43.50
2023-02-08T22:30:20.984Z,47.80
2023-02-08T22:32:52.558Z,48.20
2023-02-08T22:35:22.762Z,45.10
2023-02-08T22:40:23.769Z,50.70
2023-02-08T22:42:54.206Z,49.80
2023-02-08T22:45:24.428Z,43.90
2023-02-08T22:47:55.217Z,52.30
2023-02-08T22:50:26.408Z,50.40
2023-02-08T23:00:32.498Z,42.30
2023-02-08T23:03:00.810Z,45.50
2023-02-08T23:05:29.387Z,46.40
2023-02-08T23:07:58.022Z,49.50
2023-02-08T23:10:26.300Z,45.80
2023-02-08T23:12:54.690Z,46.90
2023-02-08T23:15:22.954Z,51.80
2023-02-08T23:17:52.428Z,50.50
2023-02-08T23:20:20.537Z,47.40
2023-02-08T23:22:49.318Z,44.20
2023-02-08T23:25:18.131Z,46.70
2023-02-08T23:27:46.585Z,48.60
2023-02-08T23:30:15.305Z,50.70
2023-02-08T23:32:43.985Z,72.40
2023-02-08T23:35:12.440Z,94.20
2023-02-08T23:37:40.935Z,97.10
2023-02-08T23:40:10.400Z,60.50
2023-02-08T23:42:38.739Z,50.20
2023-02-08T23:45:08.030Z,46.40
2023-02-08T23:50:07.091Z,39.60
2023-02-08T23:52:35.506Z,36.60
2023-02-08T23:55:05.132Z,42.90
2023-02-08T23:57:36.681Z,46.50
